Time;durP1;ratioP1;P1;durP2;ratioP2;P2;SDS_P1;SDS_P2;PMS_P1;PMS_P2;Temp;Humidity;BMP_temperature;BMP_pressure;BME280_temperature;BME280_humidity;BME280_pressure;Samples;Min_cycle;Max_cycle;Signal;HPM_P1;HPM_P2
2022/03/02 00:01:58;;;;;;;22.90;13.02;;;1.40;99.90;;;;;;4986827;28;20108;-62
2022/03/02 00:04:26;;;;;;;17.95;11.32;;;1.40;99.90;;;;;;4986295;28;20060;-65
2022/03/02 00:06:52;;;;;;;17.58;13.23;;;1.40;99.90;;;;;;4984378;28;20085;-62
2022/03/02 00:09:19;;;;;;;16.38;11.48;;;1.40;99.90;;;;;;4981535;28;20148;-65
2022/03/02 00:11:46;;;;;;;22.42;12.07;;;1.40;99.90;;;;;;4983256;28;20050;-63
2022/03/02 00:14:14;;;;;;;30.55;12.05;;;1.50;99.90;;;;;;4982932;28;20066;-63
2022/03/02 00:16:41;;;;;;;20.90;13.20;;;1.50;99.90;;;;;;4985009;28;20697;-67
2022/03/02 00:19:08;;;;;;;22.60;12.07;;;1.50;99.90;;;;;;4985186;28;20120;-67
2022/03/02 00:21:36;;;;;;;18.27;12.98;;;1.50;99.90;;;;;;4983743;28;20054;-63
2022/03/02 00:24:04;;;;;;;16.10;12.18;;;1.50;99.90;;;;;;4985035;28;20140;-63
2022/03/02 00:26:34;;;;;;;20.80;12.95;;;1.50;99.90;;;;;;4984563;28;20133;-65
2022/03/02 00:29:02;;;;;;;18.55;11.82;;;1.50;99.90;;;;;;4983806;28;20129;-65
2022/03/02 00:31:29;;;;;;;24.27;13.20;;;1.50;99.90;;;;;;4995911;28;20144;-62
2022/03/02 00:33:57;;;;;;;21.75;14.20;;;1.50;99.90;;;;;;4985059;28;20117;-63
2022/03/02 00:36:24;;;;;;;28.40;13.10;;;1.50;99.90;;;;;;4992759;28;20598;-64
2022/03/02 00:38:51;;;;;;;17.70;12.60;;;1.40;99.90;;;;;;5005925;28;20065;-64
2022/03/02 00:41:17;;;;;;;19.60;13.95;;;1.40;99.90;;;;;;5001895;28;20074;-69
2022/03/02 00:43:47;;;;;;;17.88;13.48;;;1.40;99.90;;;;;;5002067;28;20074;-63
2022/03/02 00:46:15;;;;;;;17.75;13.13;;;1.40;99.90;;;;;;5004928;28;20128;-63
2022/03/02 00:48:43;;;;;;;21.48;13.70;;;1.30;99.90;;;;;;5010614;28;20088;-64
2022/03/02 00:51:10;;;;;;;26.08;13.63;;;1.30;99.90;;;;;;5004712;28;20042;-67
2022/03/02 00:53:37;;;;;;;24.55;13.48;;;1.30;99.90;;;;;;5003411;28;20049;-65
2022/03/02 00:56:04;;;;;;;20.02;13.07;;;1.30;99.90;;;;;;5002895;28;20105;-65
2022/03/02 00:58:31;;;;;;;23.67;12.38;;;1.20;99.90;;;;;;5004356;28;20687;-63
2022/03/02 01:00:58;;;;;;;21.02;13.20;;;1.20;99.90;;;;;;5003974;28;20037;-64
2022/03/02 01:03:25;;;;;;;17.73;12.60;;;1.20;99.90;;;;;;5002230;28;20042;-65
2022/03/02 01:05:52;;;;;;;18.50;12.68;;;1.20;99.90;;;;;;5001931;28;20054;-64
2022/03/02 01:08:19;;;;;;;21.70;12.48;;;1.20;99.90;;;;;;5005144;28;20096;-64
2022/03/02 01:10:46;;;;;;;20.48;14.13;;;1.10;99.90;;;;;;5002610;28;20050;-64
2022/03/02 01:13:14;;;;;;;17.27;12.32;;;1.10;99.90;;;;;;5003632;28;20050;-63
2022/03/02 01:15:41;;;;;;;24.58;14.70;;;1.20;99.90;;;;;;5000526;28;20057;-64
2022/03/02 01:18:08;;;;;;;19.42;13.27;;;1.10;99.90;;;;;;5003268;28;20077;-63
2022/03/02 01:20:35;;;;;;;17.67;13.38;;;1.10;99.90;;;;;;5004418;28;20049;-63
2022/03/02 01:23:02;;;;;;;23.58;12.77;;;1.10;99.90;;;;;;5003100;28;20057;-63
2022/03/02 01:25:29;;;;;;;19.23;12.57;;;1.10;99.90;;;;;;5000037;28;20076;-63
2022/03/02 01:27:55;;;;;;;16.55;13.00;;;1.10;99.90;;;;;;4997745;28;20133;-65
2022/03/02 01:30:23;;;;;;;19.30;12.07;;;1.10;99.90;;;;;;4991680;28;20125;-63
2022/03/02 01:32:51;;;;;;;19.02;11.95;;;1.00;99.90;;;;;;5003840;28;20381;-62
2022/03/02 01:35:18;;;;;;;23.10;12.55;;;1.10;99.90;;;;;;4981536;28;20711;-65
2022/03/02 01:37:45;;;;;;;17.77;12.52;;;1.00;99.90;;;;;;4985827;28;20069;-62
2022/03/02 01:40:12;;;;;;;18.08;12.60;;;1.00;99.90;;;;;;4982151;28;20615;-64
2022/03/02 01:42:41;;;;;;;15.95;12.60;;;1.00;99.90;;;;;;4984874;28;20381;-69
2022/03/02 01:45:10;;;;;;;19.13;13.30;;;1.00;99.90;;;;;;5002151;28;20049;-63
2022/03/02 01:47:38;;;;;;;17.90;12.35;;;0.90;99.90;;;;;;5005308;28;20560;-69
2022/03/02 01:50:07;;;;;;;17.08;12.77;;;0.80;99.90;;;;;;5008865;28;20175;-64
2022/03/02 01:52:35;;;;;;;16.77;12.43;;;0.80;99.90;;;;;;5002528;28;20164;-63
2022/03/02 01:55:03;;;;;;;20.50;11.38;;;0.80;99.90;;;;;;5002330;28;20119;-66
2022/03/02 01:57:30;;;;;;;15.80;11.82;;;0.80;99.90;;;;;;5001338;28;20089;-68
2022/03/02 01:59:57;;;;;;;14.25;11.10;;;0.80;99.90;;;;;;5001717;28;20046;-67
2022/03/02 02:02:24;;;;;;;24.15;13.07;;;0.70;99.90;;;;;;5008070;28;20567;-69
2022/03/02 02:04:53;;;;;;;21.83;13.02;;;0.70;99.90;;;;;;5009332;28;20467;-63
2022/03/02 02:07:22;;;;;;;14.93;11.23;;;0.60;99.90;;;;;;4998184;28;20048;-63
2022/03/02 02:09:49;;;;;;;18.75;12.07;;;0.60;99.90;;;;;;4987675;28;20303;-63
2022/03/02 02:12:16;;;;;;;19.30;12.60;;;0.60;99.90;;;;;;5006298;28;20061;-63
2022/03/02 02:14:43;;;;;;;20.15;11.80;;;0.50;99.90;;;;;;4992292;28;20050;-63
2022/03/02 02:17:10;;;;;;;17.85;12.45;;;0.50;99.90;;;;;;4984689;28;20042;-66
2022/03/02 02:19:38;;;;;;;16.35;11.30;;;0.40;99.90;;;;;;4981955;28;20077;-68
2022/03/02 02:22:05;;;;;;;14.50;11.68;;;0.30;99.90;;;;;;4984612;28;20163;-66
2022/03/02 02:24:33;;;;;;;20.30;11.63;;;0.30;99.90;;;;;;4982077;28;20795;-64
2022/03/02 02:27:01;;;;;;;20.88;15.07;;;0.30;99.90;;;;;;4980946;28;20058;-63
2022/03/02 02:29:31;;;;;;;21.13;13.15;;;0.20;99.90;;;;;;4943020;28;21284;-63
2022/03/02 02:32:16;;;;;;;13.81;11.52;;;0.20;99.90;;;;;;4441763;28;10000621;-64
2022/03/02 02:34:42;;;;;;;18.75;12.32;;;0.10;99.90;;;;;;1371650;28;10001974;-63
2022/03/02 02:37:12;;;;;;;19.35;12.70;;;0.00;99.90;;;;;;4979341;28;20320;-65
2022/03/02 02:39:39;;;;;;;24.20;13.73;;;0.00;99.90;;;;;;5000270;28;20467;-65
2022/03/02 02:42:08;;;;;;;24.55;12.15;;;0.00;99.90;;;;;;5001807;28;20097;-65
2022/03/02 02:44:36;;;;;;;18.75;13.27;;;0.00;99.90;;;;;;5001930;28;20204;-64
2022/03/02 02:47:03;;;;;;;19.70;13.30;;;0.00;99.90;;;;;;5002344;28;20718;-62
2022/03/02 02:49:30;;;;;;;22.85;13.90;;;0.00;99.90;;;;;;5001009;28;20050;-66
2022/03/02 02:51:57;;;;;;;20.38;12.60;;;-0.10;99.90;;;;;;5001787;28;20077;-63
2022/03/02 02:54:24;;;;;;;24.70;13.73;;;0.00;99.90;;;;;;5002272;28;20449;-69
2022/03/02 02:56:51;;;;;;;24.25;13.70;;;0.00;99.90;;;;;;5001380;28;20141;-63
2022/03/02 02:59:18;;;;;;;21.80;13.32;;;0.10;99.90;;;;;;5000324;28;20116;-62
2022/03/02 03:01:45;;;;;;;23.40;13.80;;;0.10;99.90;;;;;;5001158;28;20136;-65
2022/03/02 03:04:12;;;;;;;21.20;13.40;;;0.10;99.90;;;;;;5008746;28;20061;-67
2022/03/02 03:06:39;;;;;;;23.77;13.93;;;0.10;99.90;;;;;;5000836;28;20054;-63
2022/03/02 03:09:06;;;;;;;21.60;13.32;;;0.10;99.90;;;;;;5001159;28;20088;-64
2022/03/02 03:11:36;;;;;;;16.95;13.57;;;0.10;99.90;;;;;;4997329;28;20164;-63
2022/03/02 03:14:13;;;;;;;20.00;12.35;;;0.10;99.90;;;;;;5000510;28;20054;-63
2022/03/02 03:16:42;;;;;;;19.13;13.43;;;0.10;99.90;;;;;;4987672;28;20065;-66
2022/03/02 03:19:09;;;;;;;28.38;14.25;;;0.10;99.90;;;;;;4999293;28;23157;-66
2022/03/02 03:21:36;;;;;;;17.90;13.25;;;0.10;99.90;;;;;;5001575;28;20061;-64
2022/03/02 03:24:04;;;;;;;18.38;13.85;;;0.10;99.90;;;;;;5008572;28;20117;-64
2022/03/02 03:26:31;;;;;;;19.52;15.13;;;0.10;99.90;;;;;;5002161;28;20546;-65
2022/03/02 03:28:58;;;;;;;21.35;14.30;;;0.10;99.90;;;;;;4998766;28;20141;-67
2022/03/02 03:31:25;;;;;;;21.00;15.25;;;0.00;99.90;;;;;;5006357;28;20065;-63
2022/03/02 03:33:52;;;;;;;16.38;13.70;;;0.00;99.90;;;;;;5002878;28;20062;-63
2022/03/02 03:36:20;;;;;;;21.08;13.73;;;0.00;99.90;;;;;;5001378;28;20522;-62
2022/03/02 03:38:47;;;;;;;18.45;12.65;;;0.00;99.90;;;;;;5000271;28;20050;-64
2022/03/02 03:41:14;;;;;;;18.25;13.38;;;0.00;99.90;;;;;;5006893;28;20148;-66
2022/03/02 03:43:41;;;;;;;22.80;13.25;;;0.00;99.90;;;;;;4868815;28;21098;-63
2022/03/02 03:46:08;;;;;;;19.30;12.53;;;0.00;99.90;;;;;;341365;28;10023697;-64
2022/03/02 03:48:35;;;;;;;24.23;13.93;;;0.00;99.90;;;;;;5002856;28;20480;-66
2022/03/02 03:51:02;;;;;;;24.15;12.55;;;0.00;99.90;;;;;;5006011;28;20168;-62
2022/03/02 03:53:29;;;;;;;20.63;13.75;;;0.00;99.90;;;;;;5002439;28;20200;-65
2022/03/02 03:55:56;;;;;;;21.25;13.65;;;0.00;99.90;;;;;;5004441;28;20042;-66
2022/03/02 03:58:22;;;;;;;22.75;14.75;;;0.10;99.90;;;;;;5005115;28;20161;-66
2022/03/02 04:00:49;;;;;;;20.85;14.60;;;0.20;99.90;;;;;;5004851;28;20077;-63
2022/03/02 04:03:17;;;;;;;24.15;14.43;;;0.30;99.90;;;;;;5004597;28;20049;-65
2022/03/02 04:05:44;;;;;;;20.10;14.68;;;0.40;99.90;;;;;;5001701;28;20389;-68
2022/03/02 04:08:11;;;;;;;20.58;14.15;;;0.50;99.90;;;;;;4986045;28;20101;-63
2022/03/02 04:10:39;;;;;;;19.88;14.10;;;0.50;99.90;;;;;;4985935;28;20054;-67
2022/03/02 04:13:05;;;;;;;24.98;14.88;;;0.70;99.90;;;;;;4984986;28;20077;-62
2022/03/02 04:15:32;;;;;;;24.13;15.00;;;0.70;99.90;;;;;;4983422;28;20137;-68
2022/03/02 04:17:59;;;;;;;19.83;14.32;;;0.80;99.90;;;;;;4985943;28;20058;-64
2022/03/02 04:20:26;;;;;;;22.52;15.27;;;0.80;99.90;;;;;;4984482;28;20536;-66
2022/03/02 04:22:53;;;;;;;20.10;14.30;;;0.90;99.90;;;;;;4986961;28;20480;-63
2022/03/02 04:25:20;;;;;;;24.02;14.82;;;0.90;99.90;;;;;;4981528;28;20125;-68
2022/03/02 04:27:47;;;;;;;25.75;15.13;;;0.90;99.90;;;;;;4985489;28;20537;-65
2022/03/02 04:30:14;;;;;;;22.73;14.52;;;1.00;99.90;;;;;;4983383;28;20157;-62
2022/03/02 04:32:41;;;;;;;19.23;12.95;;;1.00;99.90;;;;;;4985737;28;20496;-72
2022/03/02 04:35:10;;;;;;;20.55;13.85;;;1.00;99.90;;;;;;4984340;28;20050;-64
2022/03/02 04:37:38;;;;;;;22.15;13.40;;;1.10;99.90;;;;;;4986559;28;20803;-67
2022/03/02 04:40:07;;;;;;;20.83;13.30;;;1.10;99.90;;;;;;4983682;28;20141;-69
2022/03/02 04:42:34;;;;;;;18.90;11.45;;;1.30;99.90;;;;;;4985206;28;20069;-63
2022/03/02 04:45:01;;;;;;;21.08;13.38;;;1.40;99.90;;;;;;4985052;28;20104;-66
2022/03/02 04:47:28;;;;;;;14.88;11.73;;;1.50;99.90;;;;;;4982495;28;20133;-67
2022/03/02 04:49:55;;;;;;;19.40;11.95;;;1.50;99.90;;;;;;4985998;28;20104;-66
2022/03/02 04:52:22;;;;;;;18.33;11.63;;;1.60;99.90;;;;;;4983124;28;20153;-63
2022/03/02 04:55:07;;;;;;;16.55;11.80;;;1.70;99.90;;;;;;4987543;28;20149;-69
2022/03/02 04:57:37;;;;;;;15.80;11.98;;;1.70;99.90;;;;;;4983709;28;20050;-64
2022/03/02 05:00:09;;;;;;;13.93;9.82;;;1.80;99.90;;;;;;4995335;28;20059;-69
2022/03/02 05:02:36;;;;;;;17.77;11.15;;;1.90;99.90;;;;;;4993831;28;20164;-68
2022/03/02 05:05:05;;;;;;;15.07;10.23;;;1.90;99.90;;;;;;5006235;28;20044;-65
2022/03/02 05:07:32;;;;;;;18.75;10.23;;;1.90;99.90;;;;;;5005488;28;20594;-64
2022/03/02 05:09:59;;;;;;;21.95;13.48;;;2.00;99.90;;;;;;5001262;28;20080;-64
2022/03/02 05:12:26;;;;;;;23.65;12.43;;;2.00;99.90;;;;;;5003500;28;20054;-68
2022/03/02 05:14:52;;;;;;;11.80;9.07;;;2.00;99.90;;;;;;5001903;28;20141;-62
2022/03/02 05:17:19;;;;;;;19.52;11.20;;;2.00;99.90;;;;;;5001864;28;20045;-69
2022/03/02 05:19:46;;;;;;;18.33;11.32;;;2.10;99.90;;;;;;5003636;28;20510;-64
2022/03/02 05:22:14;;;;;;;13.13;9.07;;;2.10;99.90;;;;;;5006357;28;20046;-63
2022/03/02 05:24:42;;;;;;;14.20;10.23;;;2.10;99.90;;;;;;5002710;28;20078;-63
2022/03/02 05:27:09;;;;;;;14.15;8.80;;;2.10;99.90;;;;;;5004364;28;20556;-67
2022/03/02 05:29:36;;;;;;;13.73;9.82;;;2.20;99.90;;;;;;4999230;28;20050;-63
2022/03/02 05:32:04;;;;;;;16.27;9.73;;;2.20;99.90;;;;;;4993889;28;20157;-65
2022/03/02 05:34:31;;;;;;;12.77;10.00;;;2.20;99.90;;;;;;5006016;28;20050;-67
2022/03/02 05:36:58;;;;;;;15.95;9.18;;;2.20;99.90;;;;;;5004770;28;20567;-65
2022/03/02 05:39:26;;;;;;;12.45;9.98;;;2.20;99.90;;;;;;5002083;28;20137;-70
2022/03/02 05:41:53;;;;;;;15.23;9.40;;;2.10;99.90;;;;;;5003340;28;20058;-66
2022/03/02 05:44:20;;;;;;;14.75;8.80;;;2.20;99.90;;;;;;5003483;28;20488;-62
2022/03/02 05:46:47;;;;;;;13.30;8.65;;;2.20;99.90;;;;;;5004838;28;20523;-62
2022/03/02 05:49:14;;;;;;;19.25;8.98;;;2.20;99.90;;;;;;5000261;28;20054;-64
2022/03/02 05:51:42;;;;;;;12.07;7.68;;;2.20;99.90;;;;;;5009801;28;20069;-63
2022/03/02 05:54:10;;;;;;;19.52;8.98;;;2.20;99.90;;;;;;5004739;28;20080;-68
2022/03/02 05:56:38;;;;;;;14.15;8.65;;;2.20;99.90;;;;;;5009641;28;20041;-66
2022/03/02 05:59:10;;;;;;;11.52;7.70;;;2.20;99.90;;;;;;5001659;28;20446;-62
2022/03/02 06:01:38;;;;;;;17.27;9.43;;;2.20;99.90;;;;;;5002319;28;20145;-65
2022/03/02 06:04:05;;;;;;;17.13;9.05;;;2.20;99.90;;;;;;5001347;28;20116;-65
2022/03/02 06:06:40;;;;;;;12.73;8.05;;;2.20;99.90;;;;;;5003567;28;20046;-65
2022/03/02 06:09:09;;;;;;;17.77;8.95;;;2.20;99.90;;;;;;5003277;28;20136;-64
2022/03/02 06:11:37;;;;;;;19.13;9.13;;;2.20;99.90;;;;;;5000247;28;20105;-66
2022/03/02 06:14:05;;;;;;;15.93;9.30;;;2.20;99.90;;;;;;5001040;28;20132;-62
2022/03/02 06:16:33;;;;;;;14.75;8.65;;;2.20;99.90;;;;;;5000777;28;20129;-66
2022/03/02 06:19:02;;;;;;;17.73;9.07;;;2.20;99.90;;;;;;5002795;28;20080;-66
2022/03/02 06:21:30;;;;;;;15.88;8.98;;;2.20;99.90;;;;;;5000131;28;20137;-66
2022/03/02 06:23:57;;;;;;;15.10;8.35;;;2.20;99.90;;;;;;5004066;28;20073;-64
2022/03/02 06:26:25;;;;;;;12.00;8.82;;;2.20;99.90;;;;;;5001590;28;20057;-63
2022/03/02 06:28:53;;;;;;;20.95;8.90;;;2.20;99.90;;;;;;4988749;28;20108;-63
2022/03/02 06:31:20;;;;;;;18.20;9.13;;;2.20;99.90;;;;;;4995910;28;20069;-62
2022/03/02 06:33:56;;;;;;;15.60;9.35;;;2.20;99.90;;;;;;3802702;28;10003814;-63
2022/03/02 06:36:23;;;;;;;21.77;9.13;;;2.20;99.90;;;;;;1716323;28;10002012;-64
2022/03/02 06:38:50;;;;;;;20.13;9.10;;;2.20;99.90;;;;;;4981971;28;20074;-65
2022/03/02 06:41:36;;;;;;;14.15;9.70;;;2.20;99.90;;;;;;4981238;28;20109;-66
2022/03/02 06:44:10;;;;;;;12.40;8.63;;;2.20;99.90;;;;;;4981457;28;20054;-70
2022/03/02 06:46:56;;;;;;;22.67;9.68;;;2.10;99.90;;;;;;4984506;28;20096;-64
2022/03/02 06:49:34;;;;;;;16.98;9.10;;;2.10;99.90;;;;;;4978659;28;20069;-64
2022/03/02 06:52:03;;;;;;;14.88;9.20;;;2.10;99.90;;;;;;4983529;28;20043;-62
2022/03/02 06:54:32;;;;;;;16.65;8.70;;;2.10;99.90;;;;;;4982808;28;20042;-64
2022/03/02 06:57:02;;;;;;;18.35;8.23;;;2.10;99.90;;;;;;4982310;28;20074;-66
2022/03/02 06:59:42;;;;;;;20.23;10.35;;;2.10;99.90;;;;;;4982369;28;20043;-65
2022/03/02 07:02:15;;;;;;;18.33;7.93;;;2.10;99.90;;;;;;4979291;28;20046;-63
2022/03/02 07:04:43;;;;;;;15.52;8.68;;;2.10;99.90;;;;;;4982634;28;20046;-67
2022/03/02 07:07:11;;;;;;;15.90;8.30;;;2.10;99.90;;;;;;4980959;28;20055;-66
2022/03/02 07:09:39;;;;;;;16.08;9.23;;;2.10;99.90;;;;;;4980429;28;20074;-65
2022/03/02 07:12:09;;;;;;;14.07;9.90;;;2.10;99.90;;;;;;4979626;28;20437;-62
2022/03/02 07:14:36;;;;;;;14.27;8.45;;;2.10;99.90;;;;;;4976024;28;20631;-70
2022/03/02 07:17:05;;;;;;;13.50;8.07;;;2.10;99.90;;;;;;4980405;28;20141;-63
2022/03/02 07:19:32;;;;;;;19.02;10.73;;;2.10;99.90;;;;;;4979385;28;20053;-63
2022/03/02 07:22:05;;;;;;;17.58;8.70;;;2.10;99.90;;;;;;4980793;28;20380;-65
2022/03/02 07:24:38;;;;;;;17.30;9.93;;;2.10;99.90;;;;;;4984747;28;20152;-65
2022/03/02 07:27:06;;;;;;;26.90;14.15;;;2.10;99.90;;;;;;4980096;28;20068;-66
2022/03/02 07:29:36;;;;;;;14.88;8.68;;;2.20;99.90;;;;;;4984109;28;20137;-65
2022/03/02 07:32:04;;;;;;;14.68;8.05;;;2.20;99.90;;;;;;4983934;28;20133;-64
2022/03/02 07:34:33;;;;;;;16.48;8.60;;;2.20;99.90;;;;;;4984757;28;20057;-68
2022/03/02 07:37:00;;;;;;;20.98;9.20;;;2.30;99.90;;;;;;4984110;28;20153;-68
2022/03/02 07:39:28;;;;;;;14.73;8.52;;;2.30;99.90;;;;;;4986385;28;20077;-64
2022/03/02 07:41:57;;;;;;;22.13;10.98;;;2.30;99.90;;;;;;4983871;28;20468;-65
2022/03/02 07:44:24;;;;;;;20.65;8.93;;;2.40;99.90;;;;;;4988716;28;20085;-65
2022/03/02 07:46:56;;;;;;;14.32;9.27;;;2.40;99.90;;;;;;4983780;28;20038;-64
2022/03/02 07:49:23;;;;;;;20.83;9.65;;;2.40;99.90;;;;;;4983612;28;20737;-68
2022/03/02 07:51:51;;;;;;;15.68;9.85;;;2.50;99.90;;;;;;4984870;28;20046;-65
2022/03/02 07:54:20;;;;;;;12.90;9.05;;;2.50;99.90;;;;;;4985982;28;20500;-62
2022/03/02 07:56:47;;;;;;;21.38;10.15;;;2.50;99.90;;;;;;4935386;28;20050;-64
2022/03/02 07:59:26;;;;;;;25.02;9.17;;;2.50;99.90;;;;;;3361328;28;10022049;-63
2022/03/02 08:01:55;;;;;;;16.05;8.90;;;2.50;99.90;;;;;;3621552;28;10001792;-68
2022/03/02 08:04:23;;;;;;;19.52;9.77;;;2.60;99.90;;;;;;5005741;28;20058;-64
2022/03/02 08:06:52;;;;;;;22.67;11.25;;;2.60;99.90;;;;;;5005773;28;20361;-63
2022/03/02 08:09:19;;;;;;;27.02;12.43;;;2.60;99.90;;;;;;5005071;28;20148;-63
2022/03/02 08:11:47;;;;;;;13.27;8.10;;;2.70;99.90;;;;;;5004716;28;20209;-64
2022/03/02 08:14:14;;;;;;;24.45;11.93;;;2.70;99.90;;;;;;5001724;28;20081;-62
2022/03/02 08:16:43;;;;;;;17.73;7.97;;;2.70;99.90;;;;;;4993787;28;20073;-66
2022/03/02 08:19:11;;;;;;;16.55;8.77;;;2.80;99.90;;;;;;4984157;28;20481;-63
2022/03/02 08:21:42;;;;;;;18.98;10.57;;;2.80;99.90;;;;;;4984579;28;20052;-64
2022/03/02 08:24:15;;;;;;;15.52;8.50;;;2.80;99.90;;;;;;4985601;28;20439;-66
2022/03/02 08:26:47;;;;;;;15.82;8.48;;;2.80;99.90;;;;;;4986968;28;20468;-63
2022/03/02 08:29:14;;;;;;;15.88;9.32;;;2.90;99.90;;;;;;4981581;28;20057;-67
2022/03/02 08:31:42;;;;;;;21.85;9.35;;;2.80;99.90;;;;;;4985929;28;20046;-66
2022/03/02 08:34:10;;;;;;;19.67;9.52;;;2.90;99.90;;;;;;4982596;28;20046;-62
2022/03/02 08:36:37;;;;;;;14.43;9.13;;;2.90;99.90;;;;;;4986224;28;20185;-68
2022/03/02 08:39:09;;;;;;;22.90;11.07;;;2.90;99.90;;;;;;4984156;28;20141;-63
2022/03/02 08:41:36;;;;;;;14.48;9.48;;;2.90;99.90;;;;;;4984486;28;20094;-63
2022/03/02 08:44:04;;;;;;;17.38;9.77;;;2.90;99.90;;;;;;4982933;28;20085;-66
2022/03/02 08:46:31;;;;;;;14.50;9.45;;;2.90;99.90;;;;;;4985583;28;20050;-64
2022/03/02 08:48:58;;;;;;;29.40;10.27;;;3.00;99.90;;;;;;4984274;28;20100;-64
2022/03/02 08:51:26;;;;;;;20.98;10.68;;;3.00;99.90;;;;;;4983603;28;20073;-66
2022/03/02 08:53:59;;;;;;;27.85;9.60;;;3.00;99.90;;;;;;4983923;28;20152;-63
2022/03/02 08:56:27;;;;;;;20.48;10.60;;;3.10;99.90;;;;;;4985062;28;20169;-68
2022/03/02 08:58:55;;;;;;;14.10;8.93;;;3.10;99.90;;;;;;4984787;28;20628;-64
2022/03/02 09:01:27;;;;;;;13.95;9.52;;;3.10;99.90;;;;;;4983818;28;20129;-66
2022/03/02 09:03:58;;;;;;;12.32;9.57;;;3.10;99.90;;;;;;4984612;28;20058;-66
2022/03/02 09:06:27;;;;;;;16.55;10.90;;;3.10;99.90;;;;;;4983633;28;20046;-63
2022/03/02 09:08:57;;;;;;;14.93;9.80;;;3.20;99.90;;;;;;4984874;28;20122;-62
2022/03/02 09:11:25;;;;;;;17.58;8.88;;;3.20;99.90;;;;;;4981400;28;20154;-63
2022/03/02 09:13:51;;;;;;;12.80;9.10;;;3.20;99.90;;;;;;4985002;28;20140;-62
2022/03/02 09:16:20;;;;;;;16.27;10.50;;;3.10;99.90;;;;;;4983606;28;20210;-65
2022/03/02 09:18:48;;;;;;;17.13;10.18;;;3.20;99.90;;;;;;4984877;28;20108;-64
2022/03/02 09:21:19;;;;;;;20.52;9.75;;;3.30;99.90;;;;;;4981167;28;20112;-63
2022/03/02 09:23:47;;;;;;;15.77;9.40;;;3.30;99.90;;;;;;4985017;28;20045;-64
2022/03/02 09:26:18;;;;;;;17.08;9.75;;;3.20;99.90;;;;;;4983513;28;20422;-64
2022/03/02 09:28:50;;;;;;;20.17;11.35;;;3.30;99.90;;;;;;4981865;28;20049;-63
2022/03/02 09:31:22;;;;;;;17.85;9.55;;;3.30;99.90;;;;;;4983050;28;20054;-65
2022/03/02 09:33:58;;;;;;;18.55;10.20;;;3.30;99.90;;;;;;4983279;28;20042;-64
2022/03/02 09:36:26;;;;;;;18.52;9.45;;;3.30;99.90;;;;;;4984411;28;20058;-66
2022/03/02 09:38:54;;;;;;;13.52;8.50;;;3.30;99.90;;;;;;4982212;28;20143;-65
2022/03/02 09:41:30;;;;;;;23.30;10.27;;;3.30;99.90;;;;;;4983054;28;20066;-65
2022/03/02 09:43:59;;;;;;;17.75;10.02;;;3.50;99.90;;;;;;4981918;28;20038;-63
2022/03/02 09:46:31;;;;;;;23.45;10.73;;;3.50;99.90;;;;;;4941545;28;20117;-64
2022/03/02 09:49:07;;;;;;;16.15;10.02;;;3.50;99.90;;;;;;972430;28;10002819;-65
2022/03/02 09:51:35;;;;;;;22.15;10.65;;;3.40;99.90;;;;;;4985571;28;20688;-66
2022/03/02 09:54:08;;;;;;;20.67;11.18;;;3.40;99.90;;;;;;5003062;28;20103;-68
2022/03/02 09:56:36;;;;;;;26.02;12.38;;;3.40;99.90;;;;;;4999883;28;20058;-63
2022/03/02 09:59:07;;;;;;;16.95;10.23;;;3.50;99.90;;;;;;5002572;28;20424;-64
2022/03/02 10:01:36;;;;;;;18.33;10.20;;;3.40;99.90;;;;;;4998304;28;20075;-62
2022/03/02 10:04:13;;;;;;;21.95;11.30;;;3.40;99.90;;;;;;4984558;28;20425;-63
2022/03/02 10:06:43;;;;;;;18.05;9.27;;;3.40;99.90;;;;;;4983738;28;20050;-64
2022/03/02 10:09:11;;;;;;;;;;;3.40;99.90;;;;;;4976066;28;20453;-66
2022/03/02 10:11:42;;;;;;;19.55;10.20;;;3.50;99.90;;;;;;4982112;28;19992;-68
2022/03/02 10:14:10;;;;;;;19.52;10.98;;;3.40;99.90;;;;;;4984162;28;20121;-67
2022/03/02 10:16:43;;;;;;;21.13;11.07;;;3.40;99.90;;;;;;4984374;28;20050;-63
2022/03/02 10:19:35;;;;;;;28.48;10.85;;;3.40;99.90;;;;;;4981920;28;20653;-68
2022/03/02 10:22:13;;;;;;;23.67;11.82;;;3.40;99.90;;;;;;5004432;28;20042;-65
2022/03/02 10:24:49;;;;;;;18.27;10.45;;;3.50;99.90;;;;;;5001729;28;20057;-65
2022/03/02 10:27:53;;;;;;;24.40;12.57;;;3.50;99.90;;;;;;5001208;28;20091;-63
2022/03/02 10:30:20;;;;;;;18.02;11.30;;;3.50;99.90;;;;;;5001920;28;20092;-63
2022/03/02 10:32:49;;;;;;;23.52;11.55;;;3.60;99.90;;;;;;5000520;28;20054;-67
2022/03/02 10:35:21;;;;;;;27.33;12.07;;;3.60;99.90;;;;;;4984760;28;20097;-64
2022/03/02 10:37:58;;;;;;;23.80;11.60;;;3.60;99.90;;;;;;4996845;28;20167;-64
2022/03/02 10:40:25;;;;;;;19.80;10.10;;;3.60;99.90;;;;;;5004888;28;20138;-66
2022/03/02 10:42:59;;;;;;;27.35;12.50;;;3.50;99.90;;;;;;5000925;28;20412;-66
2022/03/02 10:45:27;;;;;;;27.10;11.52;;;3.60;99.90;;;;;;4999420;28;20100;-63
2022/03/02 10:48:12;;;;;;;19.98;11.27;;;3.70;99.90;;;;;;5001220;28;20152;-63
2022/03/02 10:50:42;;;;;;;27.20;12.40;;;3.70;99.90;;;;;;5000642;28;20133;-63
2022/03/02 10:53:13;;;;;;;27.52;12.77;;;3.60;99.90;;;;;;5002488;28;20084;-68
2022/03/02 10:55:48;;;;;;;20.13;11.98;;;3.70;99.90;;;;;;4999499;28;20173;-64
2022/03/02 10:58:19;;;;;;;23.73;11.85;;;3.50;99.90;;;;;;5001968;28;20512;-63
2022/03/02 11:00:47;;;;;;;29.25;11.52;;;3.50;99.90;;;;;;4999525;28;20060;-63
2022/03/02 11:03:15;;;;;;;22.33;12.27;;;3.50;99.90;;;;;;5001682;28;20155;-62
2022/03/02 11:05:42;;;;;;;20.58;11.40;;;3.60;99.90;;;;;;4995814;28;20140;-66
2022/03/02 11:08:09;;;;;;;29.15;12.85;;;3.70;99.90;;;;;;4983732;28;20457;-64
2022/03/02 11:10:40;;;;;;;26.63;14.98;;;3.60;99.90;;;;;;4993067;28;20419;-63
2022/03/02 11:13:13;;;;;;;30.52;12.40;;;3.50;99.90;;;;;;5002052;28;20050;-65
2022/03/02 11:16:00;;;;;;;23.58;11.98;;;3.50;99.90;;;;;;4999476;28;20046;-64
2022/03/02 11:18:36;;;;;;;26.35;12.55;;;3.60;99.90;;;;;;4996344;28;20184;-68
2022/03/02 11:21:17;;;;;;;25.50;12.70;;;3.60;99.90;;;;;;4990515;28;20065;-65
2022/03/02 11:23:45;;;;;;;20.02;12.05;;;3.50;99.90;;;;;;4998456;28;20072;-64
2022/03/02 11:26:17;;;;;;;20.35;11.88;;;3.40;99.90;;;;;;5000464;28;20136;-65
2022/03/02 11:28:51;;;;;;;20.77;12.88;;;3.50;99.90;;;;;;5000369;28;20053;-63
2022/03/02 11:31:29;;;;;;;15.60;11.18;;;3.60;99.90;;;;;;4984494;28;20065;-65
2022/03/02 11:34:14;;;;;;;16.45;9.93;;;3.60;99.90;;;;;;4995528;28;20070;-62
2022/03/02 11:36:45;;;;;;;16.20;10.88;;;3.60;99.90;;;;;;4978915;28;20176;-63
2022/03/02 11:39:13;;;;;;;;;;;3.60;99.90;;;;;;4982449;28;20157;-63
2022/03/02 11:41:43;;;;;;;21.83;11.55;;;3.60;99.90;;;;;;4974310;28;20028;-65
2022/03/02 11:44:39;;;;;;;19.55;10.15;;;3.50;99.90;;;;;;3928902;28;10002035;-62
2022/03/02 11:47:10;;;;;;;19.13;10.40;;;3.50;99.90;;;;;;3796456;28;10002000;-63
2022/03/02 11:49:56;;;;;;;18.38;11.00;;;3.50;99.90;;;;;;5000164;28;20078;-65
2022/03/02 11:52:28;;;;;;;23.30;10.75;;;3.60;99.90;;;;;;4999101;28;20145;-64
2022/03/02 11:54:59;;;;;;;18.45;11.40;;;3.60;99.90;;;;;;5002352;28;20073;-68
2022/03/02 11:57:29;;;;;;;21.85;11.10;;;3.60;99.90;;;;;;4994079;28;20112;-66
2022/03/02 12:00:20;;;;;;;19.52;11.77;;;3.40;99.90;;;;;;5002566;28;20201;-66
2022/03/02 12:02:58;;;;;;;19.05;10.88;;;3.40;99.90;;;;;;4997947;28;20108;-63
2022/03/02 12:05:27;;;;;;;21.00;11.48;;;3.30;99.90;;;;;;5015730;28;20092;-66
2022/03/02 12:08:08;;;;;;;19.88;9.88;;;3.40;99.90;;;;;;4999223;28;20045;-66
2022/03/02 12:10:37;;;;;;;20.52;11.73;;;3.50;99.90;;;;;;5006288;28;20057;-63
2022/03/02 12:13:04;;;;;;;20.73;10.63;;;3.50;99.90;;;;;;5002547;28;20069;-67
2022/03/02 12:15:49;;;;;;;20.27;8.90;;;3.40;99.90;;;;;;5003807;28;20156;-69
2022/03/02 12:18:17;;;;;;;20.10;12.60;;;3.30;99.90;;;;;;5003028;28;20068;-63
2022/03/02 12:20:49;;;;;;;21.40;10.00;;;3.40;99.90;;;;;;5004414;28;20080;-63
2022/03/02 12:23:23;;;;;;;17.08;11.27;;;3.30;99.90;;;;;;5002015;28;20115;-63
2022/03/02 12:25:51;;;;;;;20.45;10.32;;;3.40;99.90;;;;;;5005445;28;20111;-62
2022/03/02 12:28:20;;;;;;;13.65;10.95;;;3.40;99.90;;;;;;5001696;28;20158;-70
2022/03/02 12:30:47;;;;;;;15.25;8.93;;;3.40;99.90;;;;;;5004769;28;21981;-62
2022/03/02 12:33:18;;;;;;;16.70;9.63;;;3.50;99.90;;;;;;4999663;28;20391;-64
2022/03/02 12:35:45;;;;;;;27.05;10.15;;;3.50;99.90;;;;;;4994542;28;20049;-65
2022/03/02 12:38:12;;;;;;;24.27;9.68;;;3.50;99.90;;;;;;4994630;28;20159;-65
2022/03/02 12:40:42;;;;;;;15.88;9.57;;;3.40;99.90;;;;;;5004329;28;20076;-62
2022/03/02 12:43:16;;;;;;;11.57;8.50;;;3.40;99.90;;;;;;5000370;28;20056;-67
2022/03/02 12:45:50;;;;;;;;;;;3.40;99.90;;;;;;5003780;28;20196;-63
2022/03/02 12:48:19;;;;;;;30.70;11.43;;;3.40;99.90;;;;;;4999093;28;21130;-68
2022/03/02 12:50:47;;;;;;;19.65;9.38;;;3.40;99.90;;;;;;4991494;28;20476;-64
2022/03/02 12:53:15;;;;;;;17.92;9.15;;;3.20;99.90;;;;;;4996097;28;20397;-63